Time;durP1;ratioP1;P1;durP2;ratioP2;P2;SDS_P1;SDS_P2;PMS_P1;PMS_P2;Temp;Humidity;BMP_temperature;BMP_pressure;BME280_temperature;BME280_humidity;BME280_pressure;Samples;Min_cycle;Max_cycle;Signal;HPM_P1;HPM_P2
2021/07/04 00:01:32;;;;;;;;;5.50;5.50;;;;;30.55;53.24;98457.03;5092815;28;8875;-73
2021/07/04 00:04:04;;;;;;;;;3.25;3.25;;;;;30.53;52.88;98454.72;5092534;28;8857;-77
2021/07/04 00:06:32;;;;;;;;;3.00;3.00;;;;;30.47;52.99;98457.13;5093522;28;8836;-73
2021/07/04 00:09:01;;;;;;;;;5.50;5.50;;;;;30.46;52.69;98461.03;5093430;28;8967;-77
2021/07/04 00:11:29;;;;;;;;;4.50;4.50;;;;;30.42;52.51;98457.56;5092497;28;8864;-75
2021/07/04 00:13:58;;;;;;;;;3.00;3.00;;;;;30.37;52.90;98463.47;5094297;28;8868;-75
2021/07/04 00:16:26;;;;;;;;;5.25;5.25;;;;;30.30;53.66;98458.09;5091829;28;8922;-76
2021/07/04 00:18:55;;;;;;;;;2.40;2.40;;;;;30.32;53.19;98474.78;5091865;28;8841;-75
2021/07/04 00:21:23;;;;;;;;;2.00;2.00;;;;;30.29;53.43;98472.88;5091923;28;8857;-76
2021/07/04 00:23:53;;;;;;;;;2.00;2.00;;;;;30.28;52.54;98474.06;5092053;28;8845;-75
2021/07/04 00:26:21;;;;;;;;;3.25;3.25;;;;;30.32;52.95;98485.66;5089840;28;8833;-75
2021/07/04 00:28:50;;;;;;;;;3.00;3.00;;;;;30.32;52.33;98488.38;5091853;28;8849;-75
2021/07/04 00:31:18;;;;;;;;;2.00;2.00;;;;;30.36;52.30;98485.63;5088684;28;8848;-75
2021/07/04 00:33:47;;;;;;;;;0.75;0.75;;;;;30.37;52.39;98498.84;5092580;28;8980;-75
2021/07/04 00:36:15;;;;;;;;;1.75;1.75;;;;;30.41;52.22;98502.28;5091895;28;8845;-75
2021/07/04 00:38:44;;;;;;;;;2.25;2.25;;;;;30.45;52.40;98502.25;5091236;28;8849;-76
2021/07/04 00:41:12;;;;;;;;;0.60;0.60;;;;;30.51;52.27;98500.63;5091565;28;9562;-76
2021/07/04 00:43:43;;;;;;;;;1.60;1.60;;;;;30.51;52.55;98506.06;5092484;28;9604;-75
2021/07/04 00:46:12;;;;;;;;;1.75;1.75;;;;;30.65;51.98;98507.91;5092252;28;8973;-75
2021/07/04 00:48:41;;;;;;;;;1.75;1.75;;;;;30.69;52.08;98503.19;5077434;28;10560;-76
2021/07/04 00:51:09;;;;;;;;;2.50;2.50;;;;;30.63;52.50;98483.81;5092497;28;8857;-76
2021/07/04 00:53:39;;;;;;;;;1.00;1.00;;;;;30.76;51.80;98494.94;5092072;28;8914;-76
2021/07/04 00:56:07;;;;;;;;;1.00;1.00;;;;;30.78;51.57;98500.75;5090683;28;8949;-77
2021/07/04 00:58:36;;;;;;;;;1.25;1.25;;;;;30.85;51.56;98510.78;5091350;28;8865;-76
2021/07/04 01:01:04;;;;;;;;;1.50;1.50;;;;;30.87;51.46;98505.69;5092341;28;8841;-76
2021/07/04 01:03:33;;;;;;;;;1.00;1.00;;;;;30.88;50.88;98521.63;5092776;28;8903;-76
2021/07/04 01:06:01;;;;;;;;;2.00;2.00;;;;;30.98;51.56;98522.69;5093021;28;8906;-76
2021/07/04 01:08:30;;;;;;;;;1.00;1.00;;;;;31.01;51.46;98525.38;5091496;28;8853;-77
2021/07/04 01:11:02;;;;;;;;;1.75;1.75;;;;;31.09;51.47;98531.50;5093076;28;8968;-76
2021/07/04 01:13:31;;;;;;;;;1.75;1.75;;;;;31.14;51.65;98529.13;5090513;28;8890;-76
2021/07/04 01:16:00;;;;;;;;;1.00;1.00;;;;;31.18;51.39;98523.63;5090983;28;8922;-76
2021/07/04 01:18:29;;;;;;;;;2.00;2.00;;;;;31.22;51.12;98531.72;5090965;28;8976;-76
2021/07/04 01:21:01;;;;;;;;;1.80;1.80;;;;;31.25;50.40;98526.22;5090677;28;8854;-78
2021/07/04 01:23:30;;;;;;;;;1.00;1.00;;;;;31.27;50.12;98517.63;5121795;27;8952;-74
2021/07/04 01:25:58;;;;;;;;;0.80;0.80;;;;;31.32;50.39;98528.06;5090835;28;9609;-75
2021/07/04 01:28:27;;;;;;;;;1.20;1.20;;;;;31.37;50.23;98536.56;5090914;28;9704;-75
2021/07/04 01:30:59;;;;;;;;;1.80;1.80;;;;;31.41;50.30;98534.56;5089615;28;8868;-75
2021/07/04 01:33:28;;;;;;;;;2.00;2.00;;;;;31.51;50.46;98535.59;5089366;28;8838;-75
2021/07/04 01:35:57;;;;;;;;;1.20;1.20;;;;;31.56;49.84;98548.75;5087810;28;8948;-75
2021/07/04 01:38:25;;;;;;;;;1.00;1.00;;;;;31.61;50.07;98548.31;5090938;28;8829;-75
2021/07/04 01:40:54;;;;;;;;;0.80;0.80;;;;;31.67;49.95;98543.16;5090808;28;8906;-75
2021/07/04 01:43:22;;;;;;;;;1.00;1.00;;;;;31.71;49.89;98555.59;5087953;28;8864;-76
2021/07/04 01:45:51;;;;;;;;;0.80;0.80;;;;;31.73;50.24;98552.44;5085403;28;8856;-76
2021/07/04 01:48:20;;;;;;;;;2.00;2.00;;;;;31.82;49.69;98558.16;5088933;28;8837;-76
2021/07/04 01:50:50;;;;;;;;;1.20;1.20;;;;;31.86;49.63;98558.09;5089968;28;8969;-78
2021/07/04 01:53:20;;;;;;;;;1.40;1.40;;;;;31.88;49.43;98555.72;5089986;28;8838;-77
2021/07/04 01:55:49;;;;;;;;;1.00;1.00;;;;;31.94;49.47;98560.31;5090254;28;8963;-76
2021/07/04 01:58:17;;;;;;;;;2.00;2.00;;;;;32.01;49.63;98564.88;5089353;28;8924;-77
2021/07/04 02:00:46;;;;;;;;;0.00;0.00;;;;;32.02;49.09;98561.72;5090746;28;8845;-76
2021/07/04 02:03:15;;;;;;;;;1.00;1.00;;;;;32.11;49.32;98563.94;5087419;28;8845;-77
2021/07/04 02:05:43;;;;;;;;;0.80;0.80;;;;;32.14;48.89;98554.91;5088285;28;8865;-76
2021/07/04 02:08:12;;;;;;;;;2.20;2.20;;;;;32.19;49.50;98553.66;5088667;28;8846;-73
2021/07/04 02:10:41;;;;;;;;;1.00;1.00;;;;;32.24;48.50;98551.25;5087352;28;8830;-76
2021/07/04 02:13:10;;;;;;;;;1.00;1.00;;;;;32.31;48.84;98553.88;5087479;28;8853;-76
2021/07/04 02:15:40;;;;;;;;;1.00;1.00;;;;;32.33;48.60;98554.22;5089949;28;8856;-75
2021/07/04 02:18:15;;;;;;;;;0.80;0.80;;;;;32.41;48.68;98558.38;5088999;28;8837;-75
2021/07/04 02:20:54;;;;;;;;;0.00;0.00;;;;;32.46;48.12;98557.13;5089648;28;8822;-76
2021/07/04 02:23:32;;;;;;;;;0.80;0.80;;;;;32.51;48.58;98553.09;5090105;28;8953;-75
2021/07/04 02:26:01;;;;;;;;;0.60;0.60;;;;;32.50;48.38;98549.63;5089520;28;9640;-75
2021/07/04 02:28:32;;;;;;;;;0.80;0.80;;;;;32.56;48.04;98558.06;5088448;28;8849;-75
2021/07/04 02:31:01;;;;;;;;;1.00;1.00;;;;;32.61;47.60;98554.88;5090678;28;8841;-75
2021/07/04 02:33:29;;;;;;;;;1.00;1.00;;;;;32.65;47.82;98548.16;5090071;28;8830;-76
2021/07/04 02:35:58;;;;;;;;;0.00;0.00;;;;;32.69;47.47;98548.84;5089332;28;8902;-75
2021/07/04 02:38:27;;;;;;;;;0.60;0.60;;;;;32.71;46.92;98551.16;5088725;28;8850;-74
2021/07/04 02:40:56;;;;;;;;;0.00;0.00;;;;;32.71;47.67;98540.22;5088396;28;8862;-75
2021/07/04 02:43:26;;;;;;;;;0.00;0.00;;;;;32.72;47.36;98545.28;5088144;28;8826;-73
2021/07/04 02:45:55;;;;;;;;;0.00;0.00;;;;;32.77;47.83;98544.03;5087350;28;8848;-74
2021/07/04 02:48:26;;;;;;;;;1.00;1.00;;;;;32.76;46.93;98534.31;5089143;28;8849;-75
2021/07/04 02:50:55;;;;;;;;;0.00;0.00;;;;;32.80;46.28;98537.75;5089592;28;8918;-74
2021/07/04 02:53:23;;;;;;;;;0.20;0.20;;;;;32.84;46.69;98541.19;5089045;28;8845;-75
2021/07/04 02:55:52;;;;;;;;;1.00;1.00;;;;;32.93;45.24;98532.41;5089270;28;8933;-75
2021/07/04 02:58:23;;;;;;;;;0.00;0.00;;;;;32.95;45.92;98535.50;5088967;28;8837;-75
2021/07/04 03:00:52;;;;;;;;;1.00;1.00;;;;;32.94;47.15;98526.53;5087891;28;8845;-75
2021/07/04 03:03:21;;;;;;;;;1.00;1.00;;;;;33.04;45.90;98544.66;5087861;28;10153;-75
2021/07/04 03:05:49;;;;;;;;;0.00;0.00;;;;;33.01;46.16;98534.59;5085971;28;8841;-76
2021/07/04 03:08:18;;;;;;;;;1.00;1.00;;;;;33.11;45.85;98538.28;5088097;28;8952;-75
2021/07/04 03:10:47;;;;;;;;;0.00;0.00;;;;;33.15;45.99;98535.47;5081965;28;8834;-75
2021/07/04 03:13:15;;;;;;;;;0.40;0.40;;;;;33.17;44.62;98539.31;5088283;28;8992;-75
2021/07/04 03:15:44;;;;;;;;;0.80;0.80;;;;;33.23;45.59;98532.16;5087491;28;8938;-76
2021/07/04 03:18:12;;;;;;;;;0.80;0.80;;;;;33.31;45.49;98536.31;5088878;28;8849;-76
2021/07/04 03:20:41;;;;;;;;;1.00;1.00;;;;;33.34;46.68;98540.94;5091606;28;8841;-75
2021/07/04 03:23:10;;;;;;;;;0.00;0.00;;;;;33.38;45.85;98536.16;5093346;28;8861;-75
2021/07/04 03:25:38;;;;;;;;;2.80;2.80;;;;;33.39;46.20;98534.97;5108757;28;8877;-75
2021/07/04 03:28:07;;;;;;;;;1.60;1.60;;;;;33.46;46.47;98534.03;5091732;28;8841;-76
2021/07/04 03:30:35;;;;;;;;;1.00;1.00;;;;;33.49;45.07;98530.44;5092919;28;8897;-74
2021/07/04 03:33:04;;;;;;;;;1.00;1.00;;;;;33.59;45.96;98520.47;5092031;28;8841;-73
2021/07/04 03:35:35;;;;;;;;;1.00;1.00;;;;;33.65;44.96;98521.50;5092337;28;8968;-75
2021/07/04 03:38:04;;;;;;;;;0.00;0.00;;;;;33.64;44.84;98515.25;5093450;28;8922;-75
2021/07/04 03:40:32;;;;;;;;;0.80;0.80;;;;;33.71;45.97;98528.00;5091360;28;8857;-75
2021/07/04 03:43:04;;;;;;;;;1.80;1.80;;;;;33.72;45.03;98524.06;5092025;28;8907;-76
2021/07/04 03:45:33;;;;;;;;;1.00;1.00;;;;;33.76;45.67;98519.28;5091546;28;8822;-75
2021/07/04 03:48:01;;;;;;;;;1.00;1.00;;;;;33.76;45.07;98516.53;5089320;28;8922;-74
2021/07/04 03:50:31;;;;;;;;;0.00;0.00;;;;;33.78;46.50;98513.38;5091605;28;8854;-75
2021/07/04 03:53:01;;;;;;;;;0.00;0.00;;;;;33.52;45.37;98469.44;5090841;28;8833;-75
2021/07/04 03:55:33;;;;;;;;;0.00;0.00;;;;;33.68;46.18;98490.53;5090733;28;8878;-75
2021/07/04 03:58:02;;;;;;;;;1.00;1.00;;;;;33.78;45.22;98500.47;5106479;28;8930;-76
2021/07/04 04:00:33;;;;;;;;;1.00;1.00;;;;;33.68;44.25;98476.88;5090826;28;8865;-76
2021/07/04 04:03:03;;;;;;;;;0.80;0.80;;;;;33.92;45.52;98505.59;5091111;28;8853;-76
2021/07/04 04:05:31;;;;;;;;;1.00;1.00;;;;;33.71;46.05;98471.31;5087114;28;8825;-76
2021/07/04 04:08:00;;;;;;;;;1.60;1.60;;;;;33.99;44.12;98512.84;5090314;28;8940;-77
2021/07/04 04:10:29;;;;;;;;;1.80;1.80;;;;;34.06;46.08;98507.19;5091084;28;8845;-76
2021/07/04 04:12:57;;;;;;;;;1.00;1.00;;;;;34.08;44.43;98499.31;5090409;28;9686;-76
2021/07/04 04:15:26;;;;;;;;;1.00;1.00;;;;;34.18;43.94;98492.03;5090836;28;8914;-75
2021/07/04 04:17:57;;;;;;;;;1.00;1.00;;;;;34.20;45.94;98489.63;5090152;28;8853;-75
2021/07/04 04:20:26;;;;;;;;;5.80;5.80;;;;;34.28;44.33;98489.00;5088976;28;8834;-75
2021/07/04 04:22:54;;;;;;;;;0.60;0.60;;;;;34.33;44.88;98488.50;5090234;28;8860;-77
2021/07/04 04:25:23;;;;;;;;;1.00;1.00;;;;;34.39;43.58;98477.81;5090374;28;8826;-76
2021/07/04 04:27:52;;;;;;;;;0.20;0.20;;;;;34.51;43.86;98482.56;5089468;28;8911;-76
2021/07/04 04:30:21;;;;;;;;;1.00;1.00;;;;;34.62;44.93;98474.03;5090016;28;8845;-78
2021/07/04 04:32:50;;;;;;;;;1.00;1.00;;;;;34.72;43.31;98474.94;5088811;28;8914;-76
2021/07/04 04:35:18;;;;;;;;;1.00;1.00;;;;;34.80;41.77;98479.78;5088262;28;8976;-76
2021/07/04 04:37:47;;;;;;;;;1.00;1.00;;;;;34.88;42.34;98483.09;5089602;28;8918;-76
2021/07/04 04:40:17;;;;;;;;;1.00;1.00;;;;;34.94;41.14;98476.66;5090231;28;8932;-77
2021/07/04 04:42:46;;;;;;;;;0.00;0.00;;;;;34.96;42.79;98479.72;5088818;28;8813;-76
2021/07/04 04:45:15;;;;;;;;;1.00;1.00;;;;;34.97;42.10;98480.50;5086934;28;8980;-77
2021/07/04 04:47:43;;;;;;;;;1.00;1.00;;;;;35.03;44.56;98473.25;5090338;28;8862;-78
2021/07/04 04:50:12;;;;;;;;;0.00;0.00;;;;;35.07;42.89;98473.91;5089046;28;8841;-79
2021/07/04 04:52:41;;;;;;;;;0.80;0.80;;;;;35.07;43.00;98467.66;5107313;28;8849;-78
2021/07/04 04:55:11;;;;;;;;;0.60;0.60;;;;;35.17;43.83;98467.31;5089453;28;8852;-78
2021/07/04 04:57:44;;;;;;;;;1.00;1.00;;;;;35.24;42.07;98458.88;5090320;28;8969;-78
2021/07/04 05:00:14;;;;;;;;;0.00;0.00;;;;;35.40;41.86;98468.97;5091364;28;9007;-79
2021/07/04 05:02:43;;;;;;;;;0.60;0.60;;;;;35.50;42.86;98461.63;5093718;28;8853;-78
2021/07/04 05:05:13;;;;;;;;;0.00;0.00;;;;;35.60;41.53;98458.53;5092208;28;8906;-83
2021/07/04 05:07:42;;;;;;;;;0.20;0.20;;;;;35.69;42.38;98457.84;5090416;28;8883;-76
2021/07/04 05:10:11;;;;;;;;;0.00;0.00;;;;;35.75;42.48;98450.59;5090704;28;8876;-79
2021/07/04 05:12:40;;;;;;;;;0.00;0.00;;;;;35.83;40.38;98448.41;5087593;28;8857;-76
2021/07/04 05:15:09;;;;;;;;;0.00;0.00;;;;;35.90;40.23;98448.16;5090999;28;8853;-77
2021/07/04 05:17:38;;;;;;;;;1.00;1.00;;;;;35.97;38.42;98442.44;5087949;28;9666;-74
2021/07/04 05:20:09;;;;;;;;;0.40;0.40;;;;;36.04;41.76;98438.69;5091833;28;8837;-77
2021/07/04 05:22:38;;;;;;;;;1.00;1.00;;;;;36.14;37.96;98432.81;5090564;28;8929;-78
2021/07/04 05:25:08;;;;;;;;;0.00;0.00;;;;;36.20;37.32;98441.25;5091540;28;8833;-77
2021/07/04 05:27:36;;;;;;;;;1.00;1.00;;;;;36.26;40.18;98434.72;5090272;28;8834;-77
2021/07/04 05:30:07;;;;;;;;;0.00;0.00;;;;;36.36;41.71;98432.84;5091094;28;8813;-77
2021/07/04 05:32:38;;;;;;;;;1.00;1.00;;;;;36.43;39.48;98431.78;5091513;28;8860;-77
2021/07/04 05:35:11;;;;;;;;;0.00;0.00;;;;;36.49;40.02;98425.28;5091876;28;8883;-76
2021/07/04 05:37:42;;;;;;;;;0.00;0.00;;;;;36.60;39.28;98431.13;5088895;28;8853;-76
2021/07/04 05:40:14;;;;;;;;;0.60;0.60;;;;;36.68;37.66;98425.38;5090468;28;8850;-76
2021/07/04 05:42:44;;;;;;;;;0.00;0.00;;;;;36.72;38.32;98415.78;5090630;28;8910;-74
2021/07/04 05:45:23;;;;;;;;;0.60;0.60;;;;;36.75;40.44;98417.66;5091307;28;8949;-74
2021/07/04 05:47:55;;;;;;;;;0.40;0.40;;;;;36.70;38.22;98396.22;5091458;28;8822;-75
2021/07/04 05:50:23;;;;;;;;;0.40;0.40;;;;;36.84;38.27;98408.69;5092460;28;8860;-73
2021/07/04 05:52:52;;;;;;;;;0.20;0.20;;;;;36.88;39.31;98412.06;5091530;28;8848;-75
2021/07/04 05:55:22;;;;;;;;;1.40;0.60;;;;;36.95;37.73;98402.78;5090644;28;8837;-75
2021/07/04 05:57:51;;;;;;;;;1.00;1.00;;;;;37.00;39.47;98396.69;5091531;28;8840;-74
2021/07/04 06:00:20;;;;;;;;;1.80;1.80;;;;;37.08;37.99;98395.19;5091504;28;9010;-74
2021/07/04 06:02:49;;;;;;;;;0.60;0.60;;;;;37.12;37.71;98385.56;5090502;28;8857;-75
2021/07/04 06:05:17;;;;;;;;;1.20;1.20;;;;;37.26;39.11;98378.75;5092361;28;8845;-74
2021/07/04 06:07:46;;;;;;;;;1.00;1.00;;;;;37.32;37.68;98374.19;5092455;28;8857;-75
2021/07/04 06:10:15;;;;;;;;;0.80;0.80;;;;;37.39;37.85;98371.13;5094981;28;9589;-75
2021/07/04 06:12:44;;;;;;;;;1.00;1.00;;;;;37.47;35.85;98372.38;5092940;28;8857;-74
2021/07/04 06:15:14;;;;;;;;;1.00;1.00;;;;;37.53;38.72;98381.56;5092567;28;8860;-75
2021/07/04 06:17:43;;;;;;;;;0.20;0.20;;;;;37.58;38.77;98373.91;5092492;28;9601;-77
2021/07/04 06:20:14;;;;;;;;;0.80;0.80;;;;;37.65;39.21;98374.38;5092344;28;8869;-77
2021/07/04 06:22:44;;;;;;;;;0.20;0.20;;;;;37.65;37.09;98363.38;5092260;28;8841;-76
2021/07/04 06:25:15;;;;;;;;;0.00;0.00;;;;;37.66;37.40;98353.13;5092176;28;8845;-75
2021/07/04 06:27:44;;;;;;;;;0.20;0.20;;;;;37.70;37.25;98353.75;5092069;28;8834;-75
2021/07/04 06:30:13;;;;;;;;;0.00;0.00;;;;;37.70;37.57;98346.25;5097248;28;8907;-76
2021/07/04 06:32:43;;;;;;;;;0.00;0.00;;;;;37.75;37.48;98344.84;5101843;28;8895;-73
2021/07/04 06:35:13;;;;;;;;;0.20;0.20;;;;;37.80;36.14;98347.75;5092667;28;8838;-76
2021/07/04 06:37:43;;;;;;;;;0.00;0.00;;;;;37.86;38.20;98339.66;5091002;28;8852;-74
2021/07/04 06:40:15;;;;;;;;;0.00;0.00;;;;;37.96;37.21;98346.69;5099163;28;8927;-73
2021/07/04 06:42:44;;;;;;;;;0.80;0.80;;;;;38.02;37.58;98330.28;5091329;28;8822;-73
2021/07/04 06:45:13;;;;;;;;;1.00;1.00;;;;;38.05;37.91;98332.91;5088812;28;8875;-75
2021/07/04 06:47:52;;;;;;;;;0.00;0.00;;;;;38.09;36.19;98325.22;5091279;28;8825;-74
2021/07/04 06:50:21;;;;;;;;;0.80;0.80;;;;;38.15;36.42;98320.66;5089640;28;8861;-73
2021/07/04 06:52:50;;;;;;;;;1.00;1.00;;;;;38.22;36.03;98318.81;5091255;28;8837;-73
2021/07/04 06:55:19;;;;;;;;;1.00;1.00;;;;;38.19;36.93;98309.47;5092092;28;8902;-73
2021/07/04 06:57:49;;;;;;;;;0.00;0.00;;;;;38.30;37.75;98312.50;5094955;28;8869;-72
2021/07/04 07:00:18;;;;;;;;;1.00;1.00;;;;;38.31;37.07;98314.03;5095779;28;8972;-72
2021/07/04 07:02:47;;;;;;;;;0.00;0.00;;;;;38.37;35.13;98316.91;5103837;28;8853;-72
2021/07/04 07:05:17;;;;;;;;;0.20;0.20;;;;;38.37;35.17;98303.16;5097680;28;8845;-73
2021/07/04 07:07:45;;;;;;;;;1.00;1.00;;;;;38.36;34.43;98298.88;5095260;28;8830;-73
2021/07/04 07:10:14;;;;;;;;;1.00;1.00;;;;;38.35;37.05;98292.59;5095170;28;9670;-73
2021/07/04 07:12:44;;;;;;;;;1.00;1.00;;;;;38.32;37.78;98288.00;5095166;28;8912;-74
2021/07/04 07:15:14;;;;;;;;;0.00;0.00;;;;;38.35;37.23;98278.03;5092721;28;8841;-74
2021/07/04 07:17:44;;;;;;;;;1.00;1.00;;;;;38.39;38.50;98276.66;5094945;28;9527;-74
2021/07/04 07:20:15;;;;;;;;;0.00;0.00;;;;;38.48;38.09;98264.81;5092553;28;8968;-74
2021/07/04 07:22:44;;;;;;;;;1.00;1.00;;;;;38.53;36.29;98269.69;5094850;28;8845;-75
2021/07/04 07:25:14;;;;;;;;;0.00;0.00;;;;;38.62;35.77;98261.41;5092460;28;8840;-74
2021/07/04 07:27:43;;;;;;;;;0.00;0.00;;;;;38.68;35.86;98259.53;5094833;28;8825;-73
2021/07/04 07:30:13;;;;;;;;;0.00;0.00;;;;;38.74;38.21;98254.91;5092687;28;8857;-73
2021/07/04 07:32:42;;;;;;;;;0.20;0.20;;;;;38.80;35.28;98246.75;5097217;28;8875;-74
2021/07/04 07:35:14;;;;;;;;;0.20;0.20;;;;;38.88;35.37;98253.44;5103972;28;8867;-71
2021/07/04 07:37:51;;;;;;;;;1.00;1.00;;;;;38.78;35.96;98230.69;5101351;28;8833;-72
2021/07/04 07:40:19;;;;;;;;;0.40;0.40;;;;;38.94;36.25;98248.81;5102624;28;8845;-73
2021/07/04 07:42:48;;;;;;;;;0.00;0.00;;;;;39.00;36.32;98243.41;5115183;28;8843;-73
2021/07/04 07:45:17;;;;;;;;;0.40;0.40;;;;;38.98;36.38;98238.38;5097738;28;8862;-73
2021/07/04 07:47:45;;;;;;;;;1.20;1.00;;;;;39.04;34.87;98241.25;5105152;28;8823;-75
2021/07/04 07:50:16;;;;;;;;;1.00;1.00;;;;;39.08;34.56;98231.53;5102941;28;8825;-75
2021/07/04 07:52:45;;;;;;;;;0.80;0.80;;;;;39.18;34.09;98228.72;5099115;28;8829;-77
2021/07/04 07:55:21;;;;;;;;;0.00;0.00;;;;;39.22;35.66;98224.53;5098776;28;8849;-73
2021/07/04 07:57:50;;;;;;;;;0.00;0.00;;;;;39.26;36.16;98219.59;5100724;28;8843;-74
2021/07/04 08:00:21;;;;;;;;;0.60;0.60;;;;;39.26;34.71;98214.09;5098308;28;8829;-74
2021/07/04 08:02:50;;;;;;;;;0.40;0.40;;;;;39.35;34.38;98210.47;5115760;27;8899;-75
2021/07/04 08:05:18;;;;;;;;;3.20;3.20;;;;;39.37;35.71;98205.25;5094731;28;8845;-73
2021/07/04 08:07:47;;;;;;;;;1.80;1.80;;;;;39.36;36.56;98198.97;5096713;28;8825;-73
2021/07/04 08:10:16;;;;;;;;;0.80;0.80;;;;;39.43;34.82;98195.84;5106823;28;8935;-74
2021/07/04 08:12:47;;;;;;;;;2.00;2.00;;;;;39.46;35.35;98200.41;5102134;28;8813;-74
2021/07/04 08:15:17;;;;;;;;;0.80;0.80;;;;;39.45;34.59;98201.63;5092732;28;8910;-75
2021/07/04 08:17:49;;;;;;;;;0.60;0.60;;;;;39.51;34.80;98203.75;5106456;28;8827;-74
2021/07/04 08:20:18;;;;;;;;;0.20;0.20;;;;;39.46;34.31;98191.34;5106818;28;8864;-73
2021/07/04 08:22:47;;;;;;;;;0.60;0.60;;;;;39.49;34.47;98187.69;5121411;27;8819;-74
2021/07/04 08:25:16;;;;;;;;;2.00;2.00;;;;;39.40;36.05;98182.97;5097740;28;8830;-75
2021/07/04 08:27:46;;;;;;;;;1.20;1.20;;;;;39.30;33.33;98178.78;5105703;28;8826;-76
2021/07/04 08:30:15;;;;;;;;;0.40;0.40;;;;;39.17;35.50;98164.50;5110176;27;8861;-74
2021/07/04 08:32:45;;;;;;;;;1.00;1.00;;;;;39.13;34.13;98172.19;5105156;28;8818;-74
2021/07/04 08:35:13;;;;;;;;;1.00;1.00;;;;;39.06;37.16;98165.06;5095759;28;8910;-73
2021/07/04 08:37:44;;;;;;;;;2.00;2.00;;;;;39.06;37.43;98158.78;5092768;28;8841;-75
2021/07/04 08:40:14;;;;;;;;;1.00;1.00;;;;;39.05;34.38;98160.00;5092116;28;8906;-73
2021/07/04 08:42:43;;;;;;;;;0.60;0.60;;;;;39.10;35.97;98153.84;5102235;28;8827;-73
2021/07/04 08:45:12;;;;;;;;;0.60;0.60;;;;;39.18;36.97;98159.75;5105608;28;8934;-74
2021/07/04 08:47:42;;;;;;;;;0.20;0.20;;;;;39.21;37.26;98143.00;5113889;27;8870;-75
2021/07/04 08:50:12;;;;;;;;;0.00;0.00;;;;;39.21;35.20;98145.00;5114145;28;9582;-76
2021/07/04 08:52:42;;;;;;;;;1.80;1.80;;;;;39.21;35.90;98145.75;5112719;28;9671;-76
2021/07/04 08:55:11;;;;;;;;;0.00;0.00;;;;;39.22;35.43;98139.00;5113819;28;8854;-74
2021/07/04 08:57:40;;;;;;;;;0.80;0.80;;;;;39.25;33.80;98138.06;5104830;28;8955;-73
2021/07/04 09:00:10;;;;;;;;;1.00;1.00;;;;;39.27;35.48;98132.81;5100263;28;8825;-75
2021/07/04 09:02:39;;;;;;;;;1.00;1.00;;;;;39.31;35.44;98132.63;5103287;28;8923;-73
2021/07/04 09:05:13;;;;;;;;;1.00;1.00;;;;;39.32;35.93;98125.88;5099550;28;8810;-72
2021/07/04 09:07:43;;;;;;;;;0.20;0.20;;;;;39.33;37.17;98122.66;5102127;28;8938;-73
2021/07/04 09:10:20;;;;;;;;;0.80;0.80;;;;;39.26;37.02;98122.28;5100702;28;8869;-74
2021/07/04 09:12:51;;;;;;;;;1.00;1.00;;;;;39.15;36.42;98111.81;5101703;28;8854;-75
2021/07/04 09:15:26;;;;;;;;;1.00;1.00;;;;;39.02;34.69;98106.53;5101632;28;8843;-72
2021/07/04 09:17:57;;;;;;;;;0.20;0.20;;;;;39.04;35.07;98112.38;5102217;28;9558;-74
2021/07/04 09:20:37;;;;;;;;;4.00;3.60;;;;;39.06;34.35;98098.09;5101757;28;8836;-73
2021/07/04 09:23:06;;;;;;;;;0.80;0.80;;;;;39.13;33.72;98084.69;5101727;28;8841;-75
2021/07/04 09:25:40;;;;;;;;;1.00;1.00;;;;;39.20;35.69;98080.03;5107453;28;8829;-75
2021/07/04 09:28:13;;;;;;;;;1.60;1.60;;;;;39.26;34.45;98081.66;5096541;28;8952;-74
2021/07/04 09:30:57;;;;;;;;;1.40;1.40;;;;;39.27;31.91;98077.66;5101643;28;8846;-74
2021/07/04 09:33:28;;;;;;;;;1.00;1.00;;;;;39.30;33.12;98079.44;5092188;28;8837;-72
2021/07/04 09:36:03;;;;;;;;;0.20;0.20;;;;;39.31;34.17;98080.22;5092010;28;8918;-73
2021/07/04 09:38:36;;;;;;;;;0.20;0.20;;;;;39.32;34.03;98076.97;5100191;28;8857;-72
2021/07/04 09:41:08;;;;;;;;;0.40;0.40;;;;;39.36;33.55;98085.06;5107254;28;8850;-75
2021/07/04 09:43:38;;;;;;;;;0.80;0.80;;;;;39.39;33.83;98078.59;5104603;28;8843;-74
2021/07/04 09:46:14;;;;;;;;;0.80;0.80;;;;;39.37;33.44;98073.53;5098773;28;8853;-74
2021/07/04 09:48:47;;;;;;;;;0.80;0.80;;;;;39.34;34.02;98074.50;5096485;28;8827;-74
2021/07/04 09:51:26;;;;;;;;;0.80;0.80;;;;;39.35;33.46;98078.03;5091959;28;8837;-75
2021/07/04 09:53:57;;;;;;;;;0.00;0.00;;;;;39.39;34.94;98073.84;5092443;28;9486;-72
2021/07/04 09:56:30;;;;;;;;;1.00;1.00;;;;;39.39;35.33;98065.56;5091999;28;8959;-72
2021/07/04 09:59:05;;;;;;;;;1.60;1.60;;;;;39.46;36.37;98073.44;5091471;28;8841;-73
2021/07/04 10:01:50;;;;;;;;;0.80;0.80;;;;;39.49;36.79;98073.75;5092001;28;8853;-75
2021/07/04 10:04:35;;;;;;;;;2.40;2.40;;;;;39.37;36.80;98081.81;5099835;28;8831;-75
2021/07/04 10:07:04;;;;;;;;;1.00;1.00;;;;;39.23;36.51;98081.84;5102348;28;8834;-75
2021/07/04 10:09:34;;;;;;;;;3.00;3.00;;;;;39.12;36.34;98082.41;5107505;28;8849;-74
2021/07/04 10:12:02;;;;;;;;;2.00;2.00;;;;;39.01;37.06;98084.94;5111767;28;8855;-73
2021/07/04 10:14:31;;;;;;;;;2.00;2.00;;;;;38.94;35.97;98088.09;5110263;28;8835;-73
2021/07/04 10:17:01;;;;;;;;;2.60;2.60;;;;;38.86;36.80;98081.44;5112194;28;8843;-74
2021/07/04 10:19:31;;;;;;;;;2.00;2.00;;;;;38.84;37.21;98092.94;5112628;28;8949;-74
2021/07/04 10:22:02;;;;;;;;;1.40;1.40;;;;;38.79;37.27;98096.34;5112416;28;8830;-74
2021/07/04 10:24:31;;;;;;;;;2.00;2.00;;;;;38.69;37.36;98095.66;5112540;28;8943;-74
2021/07/04 10:27:04;;;;;;;;;2.00;2.00;;;;;38.56;37.87;98086.09;5112181;28;9080;-74
2021/07/04 10:29:32;;;;;;;;;2.00;2.00;;;;;38.41;37.48;98095.09;5107983;28;8858;-74
2021/07/04 10:32:13;;;;;;;;;4.00;4.00;;;;;38.26;37.52;98096.25;5111859;28;8867;-74
2021/07/04 10:34:50;;;;;;;;;2.00;2.00;;;;;38.10;37.38;98089.13;5112343;28;8886;-72
2021/07/04 10:37:31;;;;;;;;;2.00;2.00;;;;;38.00;38.00;98088.44;5109843;28;10787;-73
2021/07/04 10:40:20;;;;;;;;;2.00;2.00;;;;;37.90;37.70;98086.94;5093513;28;8907;-73
2021/07/04 10:42:48;;;;;;;;;2.80;2.80;;;;;37.81;38.48;98090.50;5098516;28;8849;-73
2021/07/04 10:45:31;;;;;;;;;4.20;4.20;;;;;37.71;38.64;98093.75;5100196;28;8915;-73
2021/07/04 10:48:31;;;;;;;;;1.20;1.20;;;;;37.59;38.53;98080.97;5101268;28;8838;-75
2021/07/04 10:51:16;;;;;;;;;0.80;0.80;;;;;37.42;38.75;98080.56;5101660;28;8937;-72
2021/07/04 10:53:54;;;;;;;;;3.80;3.80;;;;;37.33;38.24;98088.84;5097679;28;8837;-73
2021/07/04 10:56:42;;;;;;;;;5.20;5.20;;;;;37.22;38.70;98092.84;5102009;28;8916;-73
2021/07/04 10:59:15;;;;;;;;;3.00;3.00;;;;;37.11;39.18;98098.03;5108351;28;8831;-73
2021/07/04 11:02:02;;;;;;;;;4.20;4.20;;;;;37.03;38.99;98105.06;5111971;28;9621;-72
2021/07/04 11:04:52;;;;;;;;;2.00;2.00;;;;;36.90;39.33;98099.75;5071277;28;8859;-73
2021/07/04 11:07:21;;;;;;;;;2.80;2.80;;;;;36.88;39.11;98120.66;5071343;28;9581;-74
2021/07/04 11:10:18;;;;;;;;;3.00;3.00;;;;;36.82;38.91;98117.75;5076675;28;8907;-75
2021/07/04 11:12:48;;;;;;;;;3.40;3.40;;;;;36.76;38.81;98125.09;5106703;28;9617;-75
2021/07/04 11:15:39;;;;;;;;;3.00;3.00;;;;;36.73;39.29;98128.72;5094206;28;8911;-73
2021/07/04 11:18:10;;;;;;;;;3.20;3.20;;;;;36.69;39.29;98125.38;5100049;28;8945;-73
2021/07/04 11:20:58;;;;;;;;;4.20;4.00;;;;;36.66;39.08;98134.53;5097639;28;9515;-74
2021/07/04 11:23:28;;;;;;;;;3.80;3.80;;;;;36.60;39.88;98130.84;5099801;28;8845;-72
2021/07/04 11:26:13;;;;;;;;;3.20;3.20;;;;;36.54;39.60;98130.69;5099701;28;8906;-74
2021/07/04 11:28:47;;;;;;;;;4.80;4.80;;;;;36.44;39.68;98126.41;5097466;28;8865;-75
2021/07/04 11:31:25;;;;;;;;;5.60;5.60;;;;;36.36;39.92;98127.94;5111518;28;8839;-76
2021/07/04 11:34:03;;;;;;;;;3.60;3.60;;;;;36.26;39.88;98124.38;5102353;28;8822;-76
2021/07/04 11:36:31;;;;;;;;;3.20;3.20;;;;;36.23;40.08;98128.03;5099287;28;9565;-75
2021/07/04 11:39:13;;;;;;;;;4.00;4.00;;;;;36.21;40.26;98127.72;5099504;28;8825;-75
2021/07/04 11:41:50;;;;;;;;;4.60;4.60;;;;;36.13;40.10;98129.22;5102808;28;8980;-76
2021/07/04 11:44:22;;;;;;;;;3.00;3.00;;;;;36.07;40.27;98133.78;5102895;28;8849;-74
2021/07/04 11:46:52;;;;;;;;;0.40;0.40;;;;;36.04;40.37;98145.69;5103433;28;8827;-74
2021/07/04 11:49:24;;;;;;;;;5.00;5.00;;;;;35.92;40.79;98146.53;5111939;28;8911;-76
2021/07/04 11:51:57;;;;;;;;;7.80;7.80;;;;;35.81;40.67;98146.19;5097802;28;9018;-74
2021/07/04 11:54:31;;;;;;;;;7.00;7.00;;;;;35.74;40.64;98158.19;5099051;28;8833;-74
2021/07/04 12:00:14;;;;;;;;;4.20;4.20;;;;;35.64;41.19;98168.34;5092184;28;9601;-72
2021/07/04 12:02:52;;;;;;;;;4.80;4.80;;;;;35.62;40.96;98189.97;5096316;28;8856;-72